createdAt,value
2018-07-09T00:01:55.901Z,17.30
2018-07-09T00:04:24.349Z,17.20
2018-07-09T00:06:52.718Z,17.20
2018-07-09T00:09:22.995Z,17.10
2018-07-09T00:11:51.424Z,17.10
2018-07-09T00:14:19.852Z,17.00
2018-07-09T00:16:48.334Z,17.00
2018-07-09T00:19:16.746Z,17.00
2018-07-09T00:21:45.169Z,17.00
2018-07-09T00:24:13.599Z,16.90
2018-07-09T00:26:42.029Z,16.90
2018-07-09T00:29:10.422Z,16.80
2018-07-09T00:31:39.018Z,16.80
2018-07-09T00:34:07.430Z,16.70
2018-07-09T00:36:35.867Z,16.70
2018-07-09T00:39:04.972Z,16.70
2018-07-09T00:41:33.490Z,16.60
2018-07-09T00:44:01.956Z,16.50
2018-07-09T00:46:30.449Z,16.50
2018-07-09T00:48:58.917Z,16.40
2018-07-09T00:51:27.319Z,16.40
2018-07-09T00:53:55.798Z,16.30
2018-07-09T00:56:24.220Z,16.30
2018-07-09T00:58:52.636Z,16.20
2018-07-09T01:01:21.072Z,16.20
2018-07-09T01:03:49.501Z,16.20
2018-07-09T01:06:17.905Z,16.20
2018-07-09T01:08:46.319Z,16.10
2018-07-09T01:11:26.595Z,16.10
2018-07-09T01:13:54.992Z,16.00
2018-07-09T01:16:23.365Z,16.00
2018-07-09T01:18:51.792Z,16.00
2018-07-09T01:21:20.272Z,15.90
2018-07-09T01:23:48.754Z,15.90
2018-07-09T01:26:17.163Z,15.90
2018-07-09T01:28:45.647Z,15.80
2018-07-09T01:31:14.100Z,15.80
2018-07-09T01:33:42.492Z,15.80
2018-07-09T01:36:10.930Z,15.80
2018-07-09T01:38:39.335Z,15.70
2018-07-09T01:41:07.783Z,15.70
2018-07-09T01:43:36.184Z,15.60
2018-07-09T01:46:04.583Z,15.60
2018-07-09T01:48:32.980Z,15.60
2018-07-09T01:51:01.345Z,15.50
2018-07-09T01:53:29.760Z,15.50
2018-07-09T01:55:58.161Z,15.50
2018-07-09T01:58:26.620Z,15.50
2018-07-09T02:00:55.014Z,15.50
2018-07-09T02:03:23.450Z,15.40
2018-07-09T02:05:51.872Z,15.40
2018-07-09T02:08:20.306Z,15.40
2018-07-09T02:10:48.733Z,15.30
2018-07-09T02:13:17.261Z,15.30
2018-07-09T02:15:45.689Z,15.20
2018-07-09T02:18:14.167Z,15.10
2018-07-09T02:20:42.572Z,15.10
2018-07-09T02:23:17.590Z,15.00
2018-07-09T02:25:46.011Z,14.90
2018-07-09T02:28:14.459Z,14.90
2018-07-09T02:30:42.867Z,14.80
2018-07-09T02:33:11.307Z,14.80
2018-07-09T02:35:39.734Z,14.70
2018-07-09T02:38:08.197Z,14.70
2018-07-09T02:40:36.629Z,14.70
2018-07-09T02:43:05.299Z,14.70
2018-07-09T02:45:34.037Z,14.70
2018-07-09T02:48:02.440Z,14.60
2018-07-09T02:50:30.883Z,14.60
2018-07-09T02:52:59.728Z,14.60
2018-07-09T02:55:28.166Z,14.60
2018-07-09T02:57:56.536Z,14.50
2018-07-09T03:00:24.912Z,14.50
2018-07-09T03:02:53.302Z,14.50
2018-07-09T03:05:21.712Z,14.50
2018-07-09T03:07:50.088Z,14.50
2018-07-09T03:10:18.497Z,14.40
2018-07-09T03:12:46.867Z,14.40
2018-07-09T03:15:15.258Z,14.40
2018-07-09T03:17:43.625Z,14.30
2018-07-09T03:20:12.055Z,14.30
2018-07-09T03:22:41.208Z,14.30
2018-07-09T03:25:09.589Z,14.20
2018-07-09T03:27:37.975Z,14.20
2018-07-09T03:30:06.709Z,14.10
2018-07-09T03:32:35.081Z,14.20
2018-07-09T03:35:03.475Z,14.30
2018-07-09T03:37:31.862Z,14.20
2018-07-09T03:40:00.261Z,14.20
2018-07-09T03:42:28.695Z,14.20
2018-07-09T03:44:57.103Z,14.20
2018-07-09T03:47:25.478Z,14.20
2018-07-09T03:49:53.863Z,14.20
2018-07-09T03:52:22.278Z,14.20
2018-07-09T03:54:50.765Z,14.30
2018-07-09T03:57:19.265Z,14.20
2018-07-09T03:59:47.708Z,14.30
2018-07-09T04:02:16.203Z,14.30
2018-07-09T04:04:44.650Z,14.40
2018-07-09T04:07:13.096Z,14.40
2018-07-09T04:09:41.532Z,14.50
2018-07-09T04:12:09.965Z,14.60
2018-07-09T04:14:38.403Z,14.80
2018-07-09T04:17:06.860Z,14.80
2018-07-09T04:19:35.278Z,14.90
2018-07-09T04:22:04.172Z,15.00
2018-07-09T04:24:32.599Z,15.00
2018-07-09T04:27:01.041Z,15.10
2018-07-09T04:29:29.468Z,15.10
2018-07-09T04:31:57.870Z,15.20
2018-07-09T04:34:26.352Z,15.30
2018-07-09T04:36:54.791Z,15.40
2018-07-09T04:39:23.256Z,15.40
2018-07-09T04:41:51.675Z,15.60
2018-07-09T04:44:20.136Z,15.70
2018-07-09T04:46:48.576Z,15.70
2018-07-09T04:49:17.030Z,15.90
2018-07-09T04:51:45.451Z,16.00
2018-07-09T04:54:14.225Z,16.10
2018-07-09T04:56:42.652Z,16.20
2018-07-09T04:59:11.256Z,16.30
2018-07-09T05:01:39.661Z,16.30
2018-07-09T05:04:08.069Z,16.30
2018-07-09T05:06:36.522Z,16.40
2018-07-09T05:09:05.761Z,16.60
2018-07-09T05:11:34.188Z,17.40
2018-07-09T05:14:02.590Z,18.10
2018-07-09T05:16:31.042Z,19.10
2018-07-09T05:18:59.452Z,21.60
2018-07-09T05:21:27.827Z,23.80
2018-07-09T05:23:56.242Z,25.30
2018-07-09T05:26:24.712Z,26.70
2018-07-09T05:28:53.128Z,27.60
2018-07-09T05:31:21.562Z,28.10
2018-07-09T05:33:50.009Z,26.90
2018-07-09T05:36:18.462Z,28.10
2018-07-09T05:38:46.965Z,28.60
2018-07-09T05:41:15.467Z,29.90
2018-07-09T05:43:44.547Z,32.40
2018-07-09T05:46:13.148Z,30.70
2018-07-09T05:48:41.598Z,31.00
2018-07-09T05:51:10.054Z,32.10
2018-07-09T05:53:38.510Z,30.50
2018-07-09T05:56:07.052Z,28.70
2018-07-09T05:58:35.457Z,30.90
2018-07-09T06:01:03.984Z,30.20
2018-07-09T06:06:00.563Z,32.00
2018-07-09T06:08:29.037Z,31.90
2018-07-09T06:10:57.507Z,33.50
2018-07-09T06:13:25.945Z,31.20
2018-07-09T06:15:54.400Z,31.90
2018-07-09T06:18:22.855Z,33.60
2018-07-09T06:20:51.316Z,33.50
2018-07-09T06:23:19.743Z,33.80
2018-07-09T06:25:48.199Z,35.40
2018-07-09T06:28:16.642Z,35.00
2018-07-09T06:30:45.077Z,34.60
2018-07-09T06:33:13.499Z,34.60
2018-07-09T06:35:42.065Z,36.30
2018-07-09T06:38:10.518Z,37.40
2018-07-09T06:40:38.985Z,34.90
2018-07-09T06:43:07.743Z,35.60
2018-07-09T06:45:36.504Z,35.50
2018-07-09T06:48:05.255Z,34.20
2018-07-09T06:50:33.687Z,35.10
2018-07-09T06:53:02.132Z,35.80
2018-07-09T06:55:31.000Z,34.90
2018-07-09T06:57:59.809Z,37.00
2018-07-09T07:00:28.255Z,36.90
2018-07-09T07:02:56.709Z,36.50
2018-07-09T07:05:25.231Z,35.50
2018-07-09T07:07:53.776Z,38.10
2018-07-09T07:10:22.265Z,37.80
2018-07-09T07:12:50.779Z,39.50
2018-07-09T07:15:19.335Z,40.10
2018-07-09T07:17:47.747Z,39.40
2018-07-09T07:20:16.174Z,39.40
2018-07-09T07:22:44.643Z,37.60
2018-07-09T07:25:13.320Z,36.40
2018-07-09T07:27:42.031Z,36.50
2018-07-09T07:30:10.502Z,36.90
2018-07-09T07:35:07.304Z,37.30
2018-07-09T07:37:35.780Z,37.80
2018-07-09T07:40:04.336Z,37.00
2018-07-09T07:42:32.776Z,34.70
2018-07-09T07:45:01.755Z,32.80
2018-07-09T07:47:30.564Z,31.00
2018-07-09T07:52:27.401Z,31.20
2018-07-09T07:54:55.848Z,32.30
2018-07-09T07:57:24.432Z,35.90
2018-07-09T07:59:53.056Z,36.50
2018-07-09T08:04:49.698Z,40.10
2018-07-09T08:07:18.188Z,36.40
2018-07-09T08:09:46.697Z,38.10
2018-07-09T08:13:00.541Z,37.50
2018-07-09T08:14:43.489Z,38.90
2018-07-09T08:19:40.020Z,35.70
2018-07-09T08:22:08.424Z,35.80
2018-07-09T08:24:36.847Z,35.90
2018-07-09T08:27:05.322Z,36.50
2018-07-09T08:29:33.914Z,34.80
2018-07-09T08:32:02.377Z,34.70
2018-07-09T08:34:30.904Z,36.20
2018-07-09T08:36:59.348Z,35.30
2018-07-09T08:39:27.916Z,33.00
2018-07-09T08:41:56.371Z,33.80
2018-07-09T08:44:24.897Z,36.00
2018-07-09T08:46:53.312Z,34.50
2018-07-09T08:49:21.688Z,35.60
2018-07-09T08:51:50.314Z,37.90
2018-07-09T08:54:18.800Z,39.70
2018-07-09T08:56:47.248Z,40.90
2018-07-09T08:59:15.776Z,39.00
2018-07-09T09:01:44.178Z,38.60
2018-07-09T09:04:12.651Z,39.90
2018-07-09T09:06:41.206Z,40.50
2018-07-09T09:09:09.659Z,41.90
2018-07-09T09:11:38.285Z,41.00
2018-07-09T09:14:06.715Z,38.60
2018-07-09T09:16:35.137Z,33.40
2018-07-09T09:19:03.563Z,33.90
2018-07-09T09:21:31.936Z,33.70
2018-07-09T09:24:00.371Z,33.20
2018-07-09T09:26:28.744Z,34.90
2018-07-09T09:28:57.137Z,36.40
2018-07-09T09:31:25.571Z,34.40
2018-07-09T09:33:54.015Z,32.00
2018-07-09T09:36:22.395Z,32.40
2018-07-09T09:38:50.820Z,32.50
2018-07-09T09:41:19.195Z,31.10
2018-07-09T09:43:47.815Z,31.30
2018-07-09T09:46:16.246Z,30.70
2018-07-09T09:48:44.856Z,29.20
2018-07-09T09:51:13.397Z,31.00
2018-07-09T09:53:41.872Z,29.40
2018-07-09T09:56:10.315Z,29.70
2018-07-09T09:58:38.760Z,29.10
2018-07-09T10:01:07.506Z,29.40
2018-07-09T10:03:36.321Z,29.20
2018-07-09T10:06:05.037Z,28.40
2018-07-09T10:08:33.431Z,28.60
2018-07-09T10:11:01.922Z,28.30
2018-07-09T10:13:30.375Z,27.70
2018-07-09T10:15:58.784Z,27.80
2018-07-09T10:20:55.436Z,27.20
2018-07-09T10:23:24.050Z,27.80
2018-07-09T10:25:52.469Z,27.50
2018-07-09T10:28:23.825Z,27.90
2018-07-09T10:30:52.248Z,27.50
2018-07-09T10:33:20.815Z,27.20
2018-07-09T10:35:49.223Z,27.30
2018-07-09T10:38:17.679Z,27.90
2018-07-09T10:40:46.173Z,28.20
2018-07-09T10:43:15.390Z,29.00
2018-07-09T10:48:11.938Z,29.00
2018-07-09T10:50:40.455Z,29.30
2018-07-09T10:53:08.952Z,29.40
2018-07-09T10:55:37.392Z,29.40
2018-07-09T10:58:05.911Z,29.30
2018-07-09T11:00:34.357Z,29.20
2018-07-09T11:03:02.760Z,29.70
2018-07-09T11:05:31.209Z,30.00
2018-07-09T11:07:59.639Z,29.20
2018-07-09T11:10:28.178Z,29.10
2018-07-09T11:12:56.701Z,28.70
2018-07-09T11:15:25.083Z,27.70
2018-07-09T11:17:53.612Z,27.60
2018-07-09T11:20:22.080Z,27.70
2018-07-09T11:22:50.561Z,27.70
2018-07-09T11:25:19.149Z,27.50
2018-07-09T11:27:47.573Z,27.80
2018-07-09T11:32:44.275Z,27.70
2018-07-09T11:35:12.796Z,27.80
2018-07-09T11:37:41.220Z,28.30
2018-07-09T11:40:09.646Z,28.00
2018-07-09T11:42:38.017Z,28.00
2018-07-09T11:47:34.727Z,28.10
2018-07-09T11:50:03.235Z,28.60
2018-07-09T11:52:31.639Z,28.90
2018-07-09T11:55:00.078Z,27.80
2018-07-09T11:57:28.651Z,28.20
2018-07-09T11:59:57.116Z,27.90
2018-07-09T12:02:25.588Z,28.40
2018-07-09T12:04:54.053Z,28.80
2018-07-09T12:07:22.470Z,28.20
2018-07-09T12:09:51.114Z,27.50
2018-07-09T12:12:19.539Z,27.90
2018-07-09T12:14:47.952Z,28.50
2018-07-09T12:17:16.389Z,28.60
2018-07-09T12:19:44.868Z,28.90
2018-07-09T12:22:13.355Z,28.70
2018-07-09T12:24:41.838Z,28.30
2018-07-09T12:29:38.455Z,27.70
2018-07-09T12:32:06.861Z,27.30
2018-07-09T12:34:35.296Z,27.40
2018-07-09T12:37:03.870Z,27.20
2018-07-09T12:39:32.388Z,27.20
2018-07-09T12:42:00.791Z,27.70
2018-07-09T12:44:29.228Z,27.30
2018-07-09T12:46:57.695Z,27.30
2018-07-09T12:49:26.538Z,27.70
2018-07-09T12:51:55.019Z,28.10
2018-07-09T12:54:23.379Z,28.20
2018-07-09T12:56:52.054Z,28.20
2018-07-09T12:59:20.406Z,27.80
2018-07-09T13:01:49.040Z,28.00
2018-07-09T13:04:17.381Z,27.60
2018-07-09T13:06:45.817Z,27.10
2018-07-09T13:09:14.362Z,27.20
2018-07-09T13:11:42.745Z,27.00
2018-07-09T13:14:11.254Z,26.80
2018-07-09T13:16:39.690Z,27.20
2018-07-09T13:19:08.308Z,27.60
2018-07-09T13:21:36.769Z,27.70
2018-07-09T13:26:33.322Z,26.90
2018-07-09T13:29:01.693Z,28.10
2018-07-09T13:31:30.115Z,28.50
2018-07-09T13:33:58.789Z,27.70
2018-07-09T13:36:27.295Z,27.70
2018-07-09T13:38:55.731Z,28.10
2018-07-09T13:41:24.130Z,27.90
2018-07-09T13:43:52.787Z,28.70
2018-07-09T13:46:21.383Z,28.00
2018-07-09T13:48:49.747Z,27.50
2018-07-09T13:51:18.135Z,27.10
2018-07-09T13:53:46.740Z,27.70
2018-07-09T13:56:15.215Z,28.30
2018-07-09T13:58:43.681Z,28.30
2018-07-09T14:01:12.510Z,28.30
2018-07-09T14:03:40.925Z,28.30
2018-07-09T14:06:09.351Z,28.30
2018-07-09T14:08:37.764Z,28.10
2018-07-09T14:11:06.227Z,28.40
2018-07-09T14:13:34.966Z,28.50
2018-07-09T14:16:03.426Z,29.30
2018-07-09T14:18:31.856Z,29.00
2018-07-09T14:21:00.274Z,28.40
2018-07-09T14:23:28.735Z,28.80
2018-07-09T14:25:57.189Z,28.70
2018-07-09T14:28:25.739Z,28.50
2018-07-09T14:30:54.313Z,28.20
2018-07-09T14:33:22.933Z,28.00
2018-07-09T14:35:51.495Z,28.00
2018-07-09T14:38:19.939Z,28.00
2018-07-09T14:40:48.367Z,27.90
2018-07-09T14:43:16.778Z,27.40
2018-07-09T14:45:45.803Z,27.70
2018-07-09T14:48:14.212Z,27.50
2018-07-09T14:50:42.639Z,27.30
2018-07-09T14:53:11.040Z,27.60
2018-07-09T14:55:39.513Z,27.40
2018-07-09T14:58:07.908Z,27.40
2018-07-09T15:00:36.276Z,27.70
2018-07-09T15:03:04.759Z,27.70
2018-07-09T15:05:33.123Z,27.70
2018-07-09T15:08:01.628Z,27.50
2018-07-09T15:10:30.025Z,27.40
2018-07-09T15:12:58.496Z,27.30
2018-07-09T15:15:26.862Z,27.40
2018-07-09T15:17:55.266Z,26.90
2018-07-09T15:20:23.766Z,26.40
2018-07-09T15:25:20.591Z,26.10
2018-07-09T15:27:49.072Z,26.00
2018-07-09T15:30:18.014Z,25.80
2018-07-09T15:32:46.428Z,25.60
2018-07-09T15:35:14.804Z,25.40
2018-07-09T15:37:43.226Z,25.40
2018-07-09T15:40:11.663Z,25.50
2018-07-09T15:42:40.124Z,25.30
2018-07-09T15:45:08.673Z,25.00
2018-07-09T15:47:37.094Z,25.00
2018-07-09T15:50:05.566Z,24.90
2018-07-09T15:52:34.100Z,25.00
2018-07-09T15:55:02.816Z,24.90
2018-07-09T15:57:31.367Z,24.60
2018-07-09T15:59:59.848Z,25.00
2018-07-09T16:02:28.339Z,24.60
2018-07-09T16:04:56.778Z,24.60
2018-07-09T16:07:25.236Z,24.80
2018-07-09T16:09:53.641Z,25.10
2018-07-09T16:12:22.101Z,25.20
2018-07-09T16:14:50.519Z,25.30
2018-07-09T16:17:19.049Z,25.30
2018-07-09T16:19:48.708Z,24.90
2018-07-09T16:22:17.149Z,25.10
2018-07-09T16:24:45.643Z,25.40
2018-07-09T16:27:14.081Z,25.80
2018-07-09T16:29:42.518Z,25.40
2018-07-09T16:32:11.072Z,25.20
2018-07-09T16:34:39.535Z,24.90
2018-07-09T16:37:08.295Z,24.80
2018-07-09T16:39:36.733Z,24.80
2018-07-09T16:42:05.260Z,24.80
2018-07-09T16:44:33.661Z,24.80
2018-07-09T16:47:02.673Z,25.20
2018-07-09T16:49:31.176Z,25.40
2018-07-09T16:51:59.616Z,25.10
2018-07-09T16:54:28.192Z,24.80
2018-07-09T16:56:56.637Z,24.90
2018-07-09T16:59:25.052Z,24.80
2018-07-09T17:01:53.483Z,24.80
2018-07-09T17:04:21.932Z,24.60
2018-07-09T17:06:50.336Z,24.60
2018-07-09T17:09:18.788Z,24.30
2018-07-09T17:11:47.177Z,24.30
2018-07-09T17:14:15.601Z,24.20
2018-07-09T17:16:44.151Z,24.40
2018-07-09T17:19:12.609Z,24.50
2018-07-09T17:21:41.027Z,24.40
2018-07-09T17:24:09.463Z,24.40
2018-07-09T17:26:37.982Z,24.30
2018-07-09T17:29:06.398Z,24.20
2018-07-09T17:31:34.806Z,24.40
2018-07-09T17:34:03.223Z,24.50
2018-07-09T17:36:31.599Z,24.50
2018-07-09T17:39:00.179Z,24.50
2018-07-09T17:41:28.596Z,24.30
2018-07-09T17:43:57.042Z,24.20
2018-07-09T17:46:25.460Z,24.10
2018-07-09T17:48:53.863Z,24.20
2018-07-09T17:51:22.225Z,24.10
2018-07-09T17:53:50.819Z,23.90
2018-07-09T17:56:19.284Z,23.70
2018-07-09T17:58:47.869Z,23.80
2018-07-09T18:01:16.382Z,23.80
2018-07-09T18:03:44.956Z,23.50
2018-07-09T18:06:13.404Z,23.40
2018-07-09T18:08:41.883Z,23.40
2018-07-09T18:11:10.330Z,23.20
2018-07-09T18:13:38.793Z,22.40
2018-07-09T18:16:07.225Z,21.90
2018-07-09T18:18:35.695Z,21.60
2018-07-09T18:21:04.172Z,21.50
2018-07-09T18:23:32.820Z,21.40
2018-07-09T18:26:01.252Z,21.30
2018-07-09T18:28:30.151Z,21.20
2018-07-09T18:30:58.632Z,21.20
2018-07-09T18:33:27.067Z,21.20
2018-07-09T18:35:55.518Z,21.20
2018-07-09T18:38:23.918Z,21.20
2018-07-09T18:40:52.391Z,21.20
2018-07-09T18:43:20.811Z,21.30
2018-07-09T18:45:49.243Z,21.40
2018-07-09T18:48:17.760Z,21.30
2018-07-09T18:50:46.198Z,21.30
2018-07-09T18:53:14.640Z,21.20
2018-07-09T18:55:43.127Z,21.20
2018-07-09T18:58:11.571Z,21.20
2018-07-09T19:00:42.981Z,21.20
2018-07-09T19:03:11.403Z,21.20
2018-07-09T19:05:51.251Z,21.10
2018-07-09T19:08:19.776Z,21.10
2018-07-09T19:10:48.287Z,21.10
2018-07-09T19:13:17.591Z,21.20
2018-07-09T19:15:46.127Z,21.20
2018-07-09T19:18:27.752Z,21.20
2018-07-09T19:21:36.792Z,21.30
2018-07-09T19:24:05.226Z,21.10
2018-07-09T19:26:32.472Z,21.10
2018-07-09T19:28:59.779Z,21.00
2018-07-09T19:31:28.117Z,21.00
2018-07-09T19:33:55.450Z,20.90
2018-07-09T19:36:23.195Z,20.90
2018-07-09T19:38:50.483Z,20.80
2018-07-09T19:41:17.821Z,20.80
2018-07-09T19:43:45.107Z,20.70
2018-07-09T19:46:12.421Z,20.70
2018-07-09T19:48:39.703Z,20.50
2018-07-09T19:51:07.023Z,20.50
2018-07-09T19:53:34.320Z,20.50
2018-07-09T19:56:01.629Z,20.40
2018-07-09T19:58:28.920Z,20.30
2018-07-09T20:00:56.233Z,20.20
2018-07-09T20:03:23.580Z,20.30
2018-07-09T20:05:50.827Z,20.20
2018-07-09T20:08:18.106Z,20.10
2018-07-09T20:10:50.910Z,20.10
2018-07-09T20:13:23.586Z,20.00
2018-07-09T20:15:56.307Z,19.90
2018-07-09T20:18:23.599Z,19.90
2018-07-09T20:20:50.925Z,19.90
2018-07-09T20:23:18.200Z,19.80
2018-07-09T20:25:45.509Z,19.80
2018-07-09T20:28:13.088Z,19.80
2018-07-09T20:30:40.428Z,19.70
2018-07-09T20:33:07.728Z,19.70
2018-07-09T20:35:35.031Z,19.50
2018-07-09T20:38:02.322Z,19.40
2018-07-09T20:40:29.649Z,19.40
2018-07-09T20:42:56.956Z,19.40
2018-07-09T20:45:24.271Z,19.30
2018-07-09T20:47:51.784Z,19.20
2018-07-09T20:50:19.108Z,19.00
2018-07-09T20:52:46.433Z,18.80
2018-07-09T20:55:13.819Z,18.80
2018-07-09T20:57:41.110Z,18.80
2018-07-09T21:00:09.251Z,18.80
2018-07-09T21:02:36.564Z,18.80
2018-07-09T21:05:03.860Z,18.80
2018-07-09T21:07:31.176Z,18.60
2018-07-09T21:09:58.480Z,18.60
2018-07-09T21:12:25.807Z,18.60
2018-07-09T21:14:53.146Z,18.70
2018-07-09T21:17:20.435Z,18.60
2018-07-09T21:19:47.738Z,18.70
2018-07-09T21:22:15.043Z,18.70
2018-07-09T21:24:42.339Z,18.70
2018-07-09T21:27:09.646Z,18.80
2018-07-09T21:29:36.928Z,18.60
2018-07-09T21:32:04.231Z,18.70
2018-07-09T21:34:31.524Z,18.70
2018-07-09T21:36:58.824Z,18.80
2018-07-09T21:39:26.119Z,18.70
2018-07-09T21:41:53.473Z,18.60
2018-07-09T21:44:20.762Z,18.50
2018-07-09T21:46:48.071Z,18.50
2018-07-09T21:49:15.363Z,18.60
2018-07-09T21:51:42.735Z,18.60
2018-07-09T21:54:10.028Z,18.60
2018-07-09T21:56:37.344Z,18.60
2018-07-09T21:59:04.641Z,18.50
2018-07-09T22:01:31.947Z,18.50
2018-07-09T22:03:59.252Z,18.40
2018-07-09T22:06:26.563Z,18.30
2018-07-09T22:08:53.848Z,18.30
2018-07-09T22:11:21.152Z,18.20
2018-07-09T22:16:16.558Z,18.20
2018-07-09T22:18:43.951Z,18.20
2018-07-09T22:21:11.276Z,18.10
2018-07-09T22:23:38.559Z,18.00
2018-07-09T22:26:05.876Z,18.10
2018-07-09T22:28:33.162Z,18.00
2018-07-09T22:31:01.730Z,18.00
2018-07-09T22:33:30.647Z,18.00
2018-07-09T22:35:59.125Z,17.90
2018-07-09T22:38:27.524Z,17.90
2018-07-09T22:40:55.995Z,17.80
2018-07-09T22:43:35.560Z,17.90
2018-07-09T22:46:04.028Z,17.80
2018-07-09T22:48:32.566Z,17.90
2018-07-09T22:51:01.131Z,17.90
2018-07-09T22:53:29.556Z,17.80
2018-07-09T22:56:09.695Z,17.80
2018-07-09T22:58:39.403Z,17.70
2018-07-09T23:01:07.817Z,17.70
2018-07-09T23:03:36.231Z,17.70
2018-07-09T23:06:04.736Z,17.70
2018-07-09T23:08:33.140Z,17.60
2018-07-09T23:13:14.199Z,17.70
2018-07-09T23:15:54.451Z,17.70
2018-07-09T23:18:34.749Z,17.80
2018-07-09T23:21:14.416Z,17.70
2018-07-09T23:23:41.799Z,17.60
2018-07-09T23:26:09.100Z,17.60
2018-07-09T23:28:36.398Z,17.70
2018-07-09T23:31:03.691Z,17.60
2018-07-09T23:33:31.025Z,17.60
2018-07-09T23:35:58.308Z,17.50
2018-07-09T23:38:25.632Z,17.50
2018-07-09T23:40:52.920Z,17.50
2018-07-09T23:43:20.237Z,17.60
2018-07-09T23:45:47.524Z,17.50
2018-07-09T23:48:14.829Z,17.30
2018-07-09T23:50:42.124Z,17.20
2018-07-09T23:53:09.436Z,17.20
2018-07-09T23:55:37.918Z,17.20
2018-07-09T23:59:27.478Z,17.20
